createdAt,value
2018-12-26T00:02:20.492Z,10.67
2018-12-26T00:04:49.360Z,9.80
2018-12-26T00:07:18.360Z,9.83
2018-12-26T00:09:47.226Z,9.87
2018-12-26T00:12:16.026Z,10.33
2018-12-26T00:14:44.825Z,10.47
2018-12-26T00:17:13.685Z,10.63
2018-12-26T00:19:42.561Z,9.80
2018-12-26T00:22:11.705Z,10.93
2018-12-26T00:24:40.659Z,10.13
2018-12-26T00:27:09.696Z,10.70
2018-12-26T00:29:38.499Z,11.03
2018-12-26T00:32:07.282Z,10.57
2018-12-26T00:34:36.145Z,10.80
2018-12-26T00:37:05.260Z,10.43
2018-12-26T00:39:34.191Z,10.47
2018-12-26T00:42:03.005Z,10.60
2018-12-26T00:44:31.791Z,13.23
2018-12-26T00:47:00.838Z,10.27
2018-12-26T00:49:29.719Z,10.70
2018-12-26T00:51:58.594Z,9.93
2018-12-26T00:54:27.437Z,11.40
2018-12-26T00:56:56.459Z,10.63
2018-12-26T00:59:25.293Z,11.40
2018-12-26T01:01:54.096Z,11.27
2018-12-26T01:04:22.901Z,10.43
2018-12-26T01:06:51.699Z,11.27
2018-12-26T01:09:20.549Z,10.63
2018-12-26T01:11:49.397Z,10.33
2018-12-26T01:14:18.163Z,11.53
2018-12-26T01:16:46.984Z,11.73
2018-12-26T01:19:15.780Z,10.97
2018-12-26T01:21:44.591Z,11.23
2018-12-26T01:24:13.431Z,10.87
2018-12-26T01:26:42.211Z,11.13
2018-12-26T01:29:11.087Z,11.77
2018-12-26T01:31:39.882Z,11.80
2018-12-26T01:34:08.693Z,11.20
2018-12-26T01:36:37.578Z,10.87
2018-12-26T01:39:07.283Z,11.60
2018-12-26T01:41:36.207Z,11.20
2018-12-26T01:44:05.216Z,10.57
2018-12-26T01:46:34.140Z,11.40
2018-12-26T01:49:03.067Z,11.33
2018-12-26T01:51:31.929Z,11.87
2018-12-26T01:54:00.727Z,11.77
2018-12-26T01:56:29.595Z,11.27
2018-12-26T01:58:58.657Z,11.87
2018-12-26T02:01:27.518Z,10.93
2018-12-26T02:03:56.340Z,11.97
2018-12-26T02:06:25.149Z,11.97
2018-12-26T02:08:54.162Z,12.37
2018-12-26T02:11:23.078Z,12.17
2018-12-26T02:13:51.976Z,10.80
2018-12-26T02:16:20.792Z,11.93
2018-12-26T02:18:49.982Z,12.60
2018-12-26T02:21:18.980Z,12.53
2018-12-26T02:23:47.801Z,12.00
2018-12-26T02:26:16.625Z,12.93
2018-12-26T02:28:46.832Z,12.63
2018-12-26T02:31:15.745Z,11.83
2018-12-26T02:33:44.620Z,12.27
2018-12-26T02:36:13.427Z,12.40
2018-12-26T02:38:42.537Z,13.00
2018-12-26T02:41:11.488Z,13.67
2018-12-26T02:43:40.421Z,13.33
2018-12-26T02:46:09.261Z,13.20
2018-12-26T02:48:38.287Z,12.93
2018-12-26T02:51:07.170Z,12.73
2018-12-26T02:53:36.367Z,13.33
2018-12-26T02:56:05.227Z,12.30
2018-12-26T02:58:34.262Z,13.07
2018-12-26T03:01:03.197Z,13.40
2018-12-26T03:03:32.012Z,13.70
2018-12-26T03:06:00.821Z,13.77
2018-12-26T03:08:29.806Z,13.60
2018-12-26T03:10:58.713Z,13.10
2018-12-26T03:13:27.731Z,13.40
2018-12-26T03:15:56.611Z,13.27
2018-12-26T03:18:25.643Z,13.10
2018-12-26T03:20:54.474Z,13.17
2018-12-26T03:23:23.281Z,13.40
2018-12-26T03:25:52.121Z,13.03
2018-12-26T03:28:21.026Z,13.27
2018-12-26T03:30:49.816Z,13.47
2018-12-26T03:33:18.870Z,13.17
2018-12-26T03:35:48.188Z,14.00
2018-12-26T03:38:17.402Z,13.90
2018-12-26T03:40:46.749Z,13.60
2018-12-26T03:43:15.948Z,12.90
2018-12-26T03:45:45.297Z,13.47
2018-12-26T03:48:15.403Z,13.83
2018-12-26T03:50:44.371Z,13.20
2018-12-26T03:53:14.347Z,13.13
2018-12-26T03:55:43.350Z,13.50
2018-12-26T03:58:12.379Z,13.90
2018-12-26T04:00:41.521Z,13.70
2018-12-26T04:03:10.376Z,14.43
2018-12-26T04:05:39.367Z,12.60
2018-12-26T04:08:10.396Z,14.10
2018-12-26T04:10:39.503Z,14.50
2018-12-26T04:13:08.419Z,13.93
2018-12-26T04:15:37.436Z,13.63
2018-12-26T04:18:06.270Z,13.73
2018-12-26T04:20:35.163Z,14.20
2018-12-26T04:23:04.290Z,14.07
2018-12-26T04:25:33.278Z,14.37
2018-12-26T04:28:02.970Z,13.27
2018-12-26T04:30:31.900Z,13.87
2018-12-26T04:33:00.703Z,13.83
2018-12-26T04:35:29.570Z,14.27
2018-12-26T04:37:58.740Z,12.63
2018-12-26T04:40:27.611Z,14.20
2018-12-26T04:42:56.462Z,13.70
2018-12-26T04:45:25.583Z,13.90
2018-12-26T04:47:54.669Z,14.20
2018-12-26T04:50:23.493Z,14.10
2018-12-26T04:52:52.560Z,13.10
2018-12-26T04:55:21.553Z,13.30
2018-12-26T04:57:50.550Z,14.20
2018-12-26T05:00:19.385Z,13.80
2018-12-26T05:02:48.289Z,13.70
2018-12-26T05:05:17.102Z,13.93
2018-12-26T05:07:46.219Z,14.23
2018-12-26T05:10:15.084Z,14.07
2018-12-26T05:12:43.971Z,13.47
2018-12-26T05:15:12.821Z,13.67
2018-12-26T05:17:42.004Z,14.03
2018-12-26T05:20:10.990Z,13.30
2018-12-26T05:22:39.883Z,13.93
2018-12-26T05:25:08.970Z,13.87
2018-12-26T05:27:38.262Z,13.97
2018-12-26T05:30:07.468Z,14.37
2018-12-26T05:32:36.371Z,14.10
2018-12-26T05:35:05.432Z,13.70
2018-12-26T05:37:34.724Z,14.70
2018-12-26T05:40:04.115Z,14.07
2018-12-26T05:42:32.940Z,14.03
2018-12-26T05:45:01.765Z,13.57
2018-12-26T05:47:30.699Z,14.63
2018-12-26T05:49:59.523Z,13.63
2018-12-26T05:52:28.399Z,13.90
2018-12-26T05:54:57.509Z,13.53
2018-12-26T05:57:26.464Z,13.53
2018-12-26T05:59:55.368Z,13.27
2018-12-26T06:02:24.176Z,13.83
2018-12-26T06:04:53.086Z,13.83
2018-12-26T06:07:22.245Z,13.62
2018-12-26T06:09:51.257Z,14.10
2018-12-26T06:12:20.124Z,13.38
2018-12-26T06:14:48.934Z,13.87
2018-12-26T06:17:17.899Z,13.60
2018-12-26T06:19:46.785Z,13.63
2018-12-26T06:22:15.653Z,13.87
2018-12-26T06:24:44.569Z,13.63
2018-12-26T06:27:13.692Z,13.37
2018-12-26T06:29:42.661Z,13.30
2018-12-26T06:32:11.505Z,14.90
2018-12-26T06:34:40.415Z,14.03
2018-12-26T06:37:09.436Z,13.27
2018-12-26T06:39:38.454Z,14.00
2018-12-26T06:42:07.324Z,14.20
2018-12-26T06:44:36.119Z,14.47
2018-12-26T06:47:05.532Z,14.93
2018-12-26T06:49:34.397Z,14.37
2018-12-26T06:52:03.258Z,14.33
2018-12-26T06:54:32.278Z,14.70
2018-12-26T06:57:01.183Z,14.70
2018-12-26T06:59:29.958Z,14.60
2018-12-26T07:01:58.841Z,13.87
2018-12-26T07:04:27.659Z,14.60
2018-12-26T07:06:56.763Z,14.60
2018-12-26T07:09:25.693Z,14.80
2018-12-26T07:11:54.641Z,15.00
2018-12-26T07:14:23.489Z,14.90
2018-12-26T07:16:52.501Z,14.77
2018-12-26T07:19:21.497Z,15.43
2018-12-26T07:21:50.396Z,15.90
2018-12-26T07:24:19.420Z,14.73
2018-12-26T07:26:48.552Z,15.53
2018-12-26T07:29:17.335Z,15.00
2018-12-26T07:31:46.091Z,14.97
2018-12-26T07:34:14.990Z,15.07
2018-12-26T07:36:44.100Z,15.60
2018-12-26T07:39:12.998Z,15.20
2018-12-26T07:41:41.874Z,15.73
2018-12-26T07:44:10.663Z,15.23
2018-12-26T07:46:39.554Z,15.80
2018-12-26T07:49:08.404Z,15.80
2018-12-26T07:51:37.316Z,15.10
2018-12-26T07:54:06.233Z,15.37
2018-12-26T07:56:35.096Z,15.50
2018-12-26T07:59:03.958Z,15.73
2018-12-26T08:01:32.721Z,15.77
2018-12-26T08:04:01.758Z,15.93
2018-12-26T08:06:30.552Z,15.73
2018-12-26T08:08:59.588Z,16.97
2018-12-26T08:11:28.385Z,16.03
2018-12-26T08:13:57.454Z,16.83
2018-12-26T08:16:26.282Z,16.43
2018-12-26T08:18:55.363Z,15.97
2018-12-26T08:21:24.161Z,17.07
2018-12-26T08:23:52.949Z,17.63
2018-12-26T08:26:21.691Z,16.53
2018-12-26T08:28:50.715Z,18.70
2018-12-26T08:31:19.508Z,17.07
2018-12-26T08:33:48.318Z,17.37
2018-12-26T08:36:17.096Z,17.70
2018-12-26T08:38:46.101Z,18.10
2018-12-26T08:41:14.887Z,17.97
2018-12-26T08:43:43.653Z,17.73
2018-12-26T08:46:12.538Z,18.90
2018-12-26T08:48:41.402Z,16.93
2018-12-26T08:51:10.204Z,18.33
2018-12-26T08:53:39.840Z,17.67
2018-12-26T08:56:09.984Z,17.90
2018-12-26T08:58:38.731Z,18.57
2018-12-26T09:01:07.697Z,18.47
2018-12-26T09:03:36.480Z,17.57
2018-12-26T09:06:05.278Z,19.00
2018-12-26T09:08:34.154Z,18.03
2018-12-26T09:11:02.981Z,19.47
2018-12-26T09:13:31.775Z,18.13
2018-12-26T09:16:00.561Z,19.85
2018-12-26T09:18:29.435Z,20.50
2018-12-26T09:20:58.221Z,20.17
2018-12-26T09:23:27.095Z,19.60
2018-12-26T09:25:59.360Z,19.63
2018-12-26T09:28:28.360Z,21.13
2018-12-26T09:30:58.046Z,20.63
2018-12-26T09:33:26.796Z,19.30
2018-12-26T09:35:55.633Z,20.97
2018-12-26T09:38:24.751Z,21.77
2018-12-26T09:40:53.537Z,21.43
2018-12-26T09:43:22.341Z,20.13
2018-12-26T09:45:51.304Z,20.02
2018-12-26T09:48:20.289Z,21.53
2018-12-26T09:50:49.090Z,22.67
2018-12-26T09:53:17.880Z,21.57
2018-12-26T09:55:46.651Z,21.87
2018-12-26T09:58:15.463Z,22.73
2018-12-26T10:00:44.268Z,22.63
2018-12-26T10:03:13.016Z,22.53
2018-12-26T10:05:41.929Z,22.07
2018-12-26T10:08:11.052Z,23.13
2018-12-26T10:10:39.875Z,22.93
2018-12-26T10:13:08.750Z,23.53
2018-12-26T10:15:37.528Z,24.00
2018-12-26T10:18:06.576Z,23.40
2018-12-26T10:20:35.385Z,23.47
2018-12-26T10:23:04.205Z,22.57
2018-12-26T10:25:32.991Z,24.40
2018-12-26T10:28:01.929Z,22.50
2018-12-26T10:30:30.755Z,23.97
2018-12-26T10:32:59.646Z,23.10
2018-12-26T10:35:28.514Z,22.97
2018-12-26T10:37:59.650Z,21.73
2018-12-26T10:40:28.442Z,22.83
2018-12-26T10:42:57.209Z,21.00
2018-12-26T10:45:26.003Z,22.50
2018-12-26T10:47:55.113Z,22.03
2018-12-26T10:50:23.888Z,21.37
2018-12-26T10:52:52.728Z,20.30
2018-12-26T10:55:21.544Z,20.77
2018-12-26T10:57:50.659Z,20.73
2018-12-26T11:00:19.475Z,19.17
2018-12-26T11:02:48.420Z,19.23
2018-12-26T11:05:17.290Z,19.87
2018-12-26T11:07:46.195Z,18.40
2018-12-26T11:10:15.076Z,19.53
2018-12-26T11:12:43.855Z,18.50
2018-12-26T11:15:12.633Z,18.90
2018-12-26T11:17:41.636Z,18.40
2018-12-26T11:20:13.136Z,18.17
2018-12-26T11:22:41.926Z,17.27
2018-12-26T11:25:10.765Z,16.30
2018-12-26T11:27:39.907Z,17.97
2018-12-26T11:30:09.756Z,17.07
2018-12-26T11:32:38.625Z,18.15
2018-12-26T11:35:08.749Z,16.13
2018-12-26T11:37:37.822Z,16.73
2018-12-26T11:40:08.365Z,17.07
2018-12-26T11:42:37.313Z,16.00
2018-12-26T11:45:06.627Z,17.20
2018-12-26T11:47:35.628Z,15.90
2018-12-26T11:50:04.653Z,17.00
2018-12-26T11:52:33.401Z,16.40
2018-12-26T11:55:02.320Z,17.33
2018-12-26T11:57:31.427Z,17.03
2018-12-26T12:00:00.231Z,16.40
2018-12-26T12:02:29.016Z,16.02
2018-12-26T12:04:57.803Z,15.40
2018-12-26T12:07:27.265Z,15.50
2018-12-26T12:09:56.206Z,16.23
2018-12-26T12:12:24.983Z,15.73
2018-12-26T12:14:53.865Z,15.87
2018-12-26T12:17:22.716Z,15.90
2018-12-26T12:19:51.594Z,16.83
2018-12-26T12:22:20.525Z,16.03
2018-12-26T12:24:49.326Z,16.20
2018-12-26T12:27:18.263Z,16.20
2018-12-26T12:29:47.168Z,15.50
2018-12-26T12:32:15.956Z,16.63
2018-12-26T12:34:44.815Z,16.43
2018-12-26T12:37:14.083Z,16.47
2018-12-26T12:39:43.066Z,15.83
2018-12-26T12:42:11.985Z,17.47
2018-12-26T12:44:40.805Z,15.93
2018-12-26T12:47:09.876Z,15.30
2018-12-26T12:49:38.691Z,15.63
2018-12-26T12:52:07.472Z,16.27
2018-12-26T12:54:36.254Z,15.83
2018-12-26T12:57:05.128Z,15.30
2018-12-26T12:59:33.940Z,16.83
2018-12-26T13:02:02.784Z,16.07
2018-12-26T13:04:31.577Z,15.67
2018-12-26T13:07:00.627Z,15.47
2018-12-26T13:09:29.596Z,16.00
2018-12-26T13:11:58.383Z,15.77
2018-12-26T13:14:27.189Z,15.47
2018-12-26T13:16:56.074Z,14.53
2018-12-26T13:19:24.886Z,15.53
2018-12-26T13:21:53.765Z,14.63
2018-12-26T13:24:22.547Z,14.93
2018-12-26T13:26:51.631Z,14.50
2018-12-26T13:29:20.413Z,15.00
2018-12-26T13:31:49.212Z,15.10
2018-12-26T13:34:18.054Z,15.73
2018-12-26T13:36:47.190Z,15.23
2018-12-26T13:39:15.962Z,14.70
2018-12-26T13:41:44.753Z,14.83
2018-12-26T13:44:13.651Z,15.30
2018-12-26T13:46:42.754Z,15.90
2018-12-26T13:49:11.553Z,15.10
2018-12-26T13:51:40.318Z,15.23
2018-12-26T13:54:09.120Z,15.10
2018-12-26T13:56:37.926Z,15.07
2018-12-26T13:59:06.708Z,15.23
2018-12-26T14:01:35.499Z,15.03
2018-12-26T14:04:04.382Z,15.30
2018-12-26T14:06:33.173Z,15.33
2018-12-26T14:09:02.124Z,14.70
2018-12-26T14:11:30.956Z,14.87
2018-12-26T14:13:59.767Z,14.90
2018-12-26T14:16:28.536Z,14.87
2018-12-26T14:18:57.483Z,14.50
2018-12-26T14:21:26.279Z,14.33
2018-12-26T14:23:55.059Z,14.07
2018-12-26T14:26:23.851Z,14.70
2018-12-26T14:28:52.847Z,14.87
2018-12-26T14:31:21.643Z,14.83
2018-12-26T14:33:50.435Z,14.90
2018-12-26T14:36:19.243Z,14.43
2018-12-26T14:38:50.254Z,15.40
2018-12-26T14:41:18.999Z,15.93
2018-12-26T14:43:48.093Z,14.83
2018-12-26T14:46:16.876Z,15.47
2018-12-26T14:48:45.807Z,16.07
2018-12-26T14:51:14.650Z,16.37
2018-12-26T14:53:43.817Z,15.47
2018-12-26T14:56:12.603Z,15.73
2018-12-26T14:58:41.589Z,14.73
2018-12-26T15:01:10.423Z,15.97
2018-12-26T15:03:39.250Z,15.83
2018-12-26T15:06:08.141Z,15.57
2018-12-26T15:08:37.154Z,16.40
2018-12-26T15:11:05.955Z,16.00
2018-12-26T15:13:35.032Z,15.23
2018-12-26T15:16:04.049Z,15.10
2018-12-26T15:18:33.013Z,15.83
2018-12-26T15:21:01.995Z,16.37
2018-12-26T15:23:30.786Z,14.97
2018-12-26T15:25:59.763Z,15.00
2018-12-26T15:28:28.626Z,15.33
2018-12-26T15:30:57.560Z,16.20
2018-12-26T15:33:26.330Z,15.83
2018-12-26T15:35:55.342Z,15.67
2018-12-26T15:38:24.208Z,16.17
2018-12-26T15:40:53.113Z,15.47
2018-12-26T15:43:21.917Z,17.30
2018-12-26T15:45:50.899Z,16.40
2018-12-26T15:48:19.781Z,17.13
2018-12-26T15:50:48.577Z,16.07
2018-12-26T15:53:17.384Z,19.20
2018-12-26T15:55:46.178Z,17.33
2018-12-26T15:58:15.206Z,17.47
2018-12-26T16:00:44.079Z,17.00
2018-12-26T16:03:13.057Z,15.33
2018-12-26T16:05:42.016Z,17.13
2018-12-26T16:08:10.913Z,15.77
2018-12-26T16:10:39.705Z,16.17
2018-12-26T16:13:08.491Z,15.87
2018-12-26T16:15:37.304Z,15.93
2018-12-26T16:18:06.265Z,16.50
2018-12-26T16:20:35.062Z,17.50
2018-12-26T16:23:03.849Z,16.67
2018-12-26T16:25:32.713Z,15.77
2018-12-26T16:28:01.818Z,16.27
2018-12-26T16:30:30.625Z,16.57
2018-12-26T16:32:59.415Z,15.83
2018-12-26T16:35:28.292Z,16.73
2018-12-26T16:38:01.615Z,15.70
2018-12-26T16:40:28.721Z,16.67
2018-12-26T16:42:57.517Z,15.80
2018-12-26T16:45:26.319Z,14.90
2018-12-26T16:47:55.252Z,15.70
2018-12-26T16:50:27.143Z,16.00
2018-12-26T16:52:54.605Z,15.57
2018-12-26T16:55:23.386Z,15.10
2018-12-26T16:57:52.377Z,15.40
2018-12-26T17:00:21.183Z,15.32
2018-12-26T17:02:49.931Z,14.73
2018-12-26T17:05:18.843Z,15.20
2018-12-26T17:07:47.779Z,15.23
2018-12-26T17:10:19.051Z,15.97
2018-12-26T17:12:47.782Z,15.47
2018-12-26T17:15:16.629Z,15.60
2018-12-26T17:17:45.658Z,14.73
2018-12-26T17:20:14.783Z,15.55
2018-12-26T17:22:43.535Z,14.60
2018-12-26T17:25:12.354Z,15.20
2018-12-26T17:27:41.412Z,13.97
2018-12-26T17:30:10.282Z,14.23
2018-12-26T17:32:39.081Z,14.60
2018-12-26T17:35:07.968Z,15.40
2018-12-26T17:37:36.879Z,14.77
2018-12-26T17:40:06.487Z,14.77
2018-12-26T17:42:35.273Z,15.03
2018-12-26T17:45:05.223Z,15.00
2018-12-26T17:47:34.270Z,15.03
2018-12-26T17:50:44.096Z,14.67
2018-12-26T17:53:16.973Z,14.90
2018-12-26T17:55:59.774Z,16.63
2018-12-26T17:58:30.808Z,17.07
2018-12-26T18:01:12.839Z,18.37
2018-12-26T18:03:38.188Z,15.93
2018-12-26T18:06:07.052Z,15.98
2018-12-26T18:08:36.381Z,15.50
2018-12-26T18:11:06.186Z,15.80
2018-12-26T18:13:36.784Z,15.67
2018-12-26T18:16:05.594Z,16.77
2018-12-26T18:18:34.554Z,15.93
2018-12-26T18:21:03.312Z,16.00
2018-12-26T18:23:32.262Z,17.13
2018-12-26T18:26:01.065Z,16.50
2018-12-26T18:28:30.047Z,17.03
2018-12-26T18:30:58.825Z,17.17
2018-12-26T18:33:27.642Z,17.20
2018-12-26T18:35:56.469Z,18.40
2018-12-26T18:38:25.448Z,18.27
2018-12-26T18:40:54.243Z,19.35
2018-12-26T18:43:23.035Z,18.17
2018-12-26T18:45:51.834Z,17.83
2018-12-26T18:48:20.748Z,17.57
2018-12-26T18:50:49.544Z,18.23
2018-12-26T18:53:18.339Z,18.20
2018-12-26T18:55:47.152Z,18.83
2018-12-26T18:58:16.095Z,18.63
2018-12-26T19:00:44.889Z,19.33
2018-12-26T19:03:13.696Z,18.37
2018-12-26T19:05:42.560Z,19.07
2018-12-26T19:08:13.511Z,19.10
2018-12-26T19:10:42.321Z,18.93
2018-12-26T19:13:11.117Z,20.00
2018-12-26T19:15:39.927Z,18.77
2018-12-26T19:18:08.853Z,20.60
2018-12-26T19:20:37.907Z,20.20
2018-12-26T19:23:06.862Z,19.93
2018-12-26T19:25:35.893Z,20.60
2018-12-26T19:28:04.916Z,20.43
2018-12-26T19:30:33.739Z,19.52
2018-12-26T19:33:02.512Z,19.63
2018-12-26T19:35:31.322Z,19.23
2018-12-26T19:38:00.154Z,20.63
2018-12-26T19:40:28.993Z,20.95
2018-12-26T19:42:57.776Z,21.33
2018-12-26T19:45:26.608Z,21.10
2018-12-26T19:47:55.566Z,22.83
2018-12-26T19:50:24.430Z,21.67
2018-12-26T19:52:53.365Z,21.87
2018-12-26T19:55:22.158Z,22.03
2018-12-26T19:57:51.122Z,20.73
2018-12-26T20:00:19.928Z,19.83
2018-12-26T20:02:48.880Z,20.30
2018-12-26T20:05:17.835Z,19.27
2018-12-26T20:07:46.863Z,19.60
2018-12-26T20:10:15.807Z,19.37
2018-12-26T20:12:44.750Z,40.93
2018-12-26T20:15:13.543Z,19.13
2018-12-26T20:17:42.583Z,18.97
2018-12-26T20:20:11.450Z,19.43
2018-12-26T20:22:40.299Z,69.57
2018-12-26T20:25:09.432Z,22.77
2018-12-26T20:27:39.480Z,22.03
2018-12-26T20:30:09.990Z,20.40
2018-12-26T20:32:38.861Z,23.27
2018-12-26T20:35:07.738Z,19.17
2018-12-26T20:37:36.931Z,18.97
2018-12-26T20:40:07.186Z,18.93
2018-12-26T20:42:36.071Z,16.87
2018-12-26T20:45:05.621Z,18.23
2018-12-26T20:47:34.699Z,18.30
2018-12-26T20:50:03.799Z,18.37
2018-12-26T20:52:32.759Z,19.93
2018-12-26T20:55:01.730Z,17.20
2018-12-26T20:57:30.713Z,16.67
2018-12-26T20:59:59.618Z,19.47
2018-12-26T21:02:28.484Z,17.63
2018-12-26T21:04:57.302Z,17.60
2018-12-26T21:07:26.296Z,17.03
2018-12-26T21:09:55.169Z,17.70
2018-12-26T21:12:23.951Z,17.20
2018-12-26T21:14:53.090Z,17.23
2018-12-26T21:17:22.145Z,16.97
2018-12-26T21:19:51.013Z,15.87
2018-12-26T21:22:19.893Z,17.03
2018-12-26T21:24:48.764Z,15.13
2018-12-26T21:27:17.947Z,16.50
2018-12-26T21:29:46.774Z,15.83
2018-12-26T21:32:15.934Z,15.53
2018-12-26T21:34:44.916Z,15.37
2018-12-26T21:37:13.892Z,15.40
2018-12-26T21:39:42.693Z,16.70
2018-12-26T21:42:11.454Z,15.37
2018-12-26T21:44:40.299Z,15.43
2018-12-26T21:47:09.338Z,14.50
2018-12-26T21:49:38.199Z,13.73
2018-12-26T21:52:07.119Z,14.00
2018-12-26T21:54:35.909Z,14.00
2018-12-26T21:57:05.017Z,13.75
2018-12-26T21:59:33.818Z,15.13
2018-12-26T22:02:02.784Z,15.50
2018-12-26T22:04:31.595Z,13.93
2018-12-26T22:07:00.487Z,13.47
2018-12-26T22:09:29.262Z,13.27
2018-12-26T22:11:58.129Z,13.50
2018-12-26T22:14:26.982Z,13.20
2018-12-26T22:16:55.978Z,13.27
2018-12-26T22:19:24.822Z,14.83
2018-12-26T22:21:53.729Z,12.97
2018-12-26T22:24:22.991Z,14.23
2018-12-26T22:26:52.926Z,14.43
2018-12-26T22:29:21.814Z,13.67
2018-12-26T22:31:50.601Z,13.60
2018-12-26T22:34:19.394Z,13.73
2018-12-26T22:36:48.285Z,12.90
2018-12-26T22:39:17.068Z,12.20
2018-12-26T22:41:45.971Z,14.10
2018-12-26T22:44:15.513Z,13.20
2018-12-26T22:46:44.446Z,14.03
2018-12-26T22:49:13.326Z,14.77
2018-12-26T22:51:42.381Z,12.97
2018-12-26T22:54:11.338Z,13.23
2018-12-26T22:56:40.095Z,13.47
2018-12-26T22:59:08.995Z,13.57
2018-12-26T23:01:37.826Z,12.90
2018-12-26T23:04:06.593Z,13.43
2018-12-26T23:06:35.538Z,13.43
2018-12-26T23:09:06.331Z,13.57
2018-12-26T23:11:35.133Z,13.23
2018-12-26T23:14:04.029Z,13.73
2018-12-26T23:16:33.114Z,14.83
2018-12-26T23:19:02.096Z,13.13
2018-12-26T23:21:30.837Z,13.40
2018-12-26T23:23:59.741Z,13.63
2018-12-26T23:26:28.584Z,13.57
2018-12-26T23:28:57.402Z,13.77
2018-12-26T23:31:26.197Z,13.87
2018-12-26T23:33:54.995Z,13.27
2018-12-26T23:36:23.864Z,13.10
2018-12-26T23:38:52.850Z,13.87
2018-12-26T23:41:21.671Z,14.47
2018-12-26T23:43:50.628Z,13.73
2018-12-26T23:46:19.369Z,14.47
2018-12-26T23:48:48.316Z,14.27
2018-12-26T23:51:17.169Z,13.63
2018-12-26T23:53:45.956Z,15.13
2018-12-26T23:56:14.789Z,13.57
2018-12-26T23:58:43.699Z,13.37
